Sangudo, Canada
Current Conditions -  °F | °C
As of 9:00 AM on Thursday 30 Oct 2014 (Local Time) from CYZU Reporting Station
Moderate Fog Moderate Fog  
Wind Chill: 22°   Ceiling: 200
Heat Index: 30°   Visibility: 0.25mi
Dew Point: 30°   Wind: 9mph
Humidity: 100%   Direction: 100°E
Pressure: 30.13"   Gusts: NA
Location:  53.88°N, 114.9°W
Report Text: CYZU 301500Z 10008KT 1/4SM FZFG VV002 M01/M01 A3013 RMK FG8 SLP237
Loading
Personal Weather Stations






























Interactive Weather Map
Tropical Storm Tracking
New forecast layout! Learn more

10-Day Weather Forecast

Advertisements
Track Severe Weather on mobile